Time;durP1;ratioP1;P1;durP2;ratioP2;P2;SDS_P1;SDS_P2;PMS_P1;PMS_P2;Temp;Humidity;BMP_temperature;BMP_pressure;BME280_temperature;BME280_humidity;BME280_pressure;Samples;Min_cycle;Max_cycle;Signal;HPM_P1;HPM_P2
2022/05/21 00:00:42;;;;;;;4.05;2.80;;;20.40;99.90;;;;;;5029053;28;20042;-85
2022/05/21 00:03:09;;;;;;;8.02;3.50;;;20.30;99.90;;;;;;5026886;28;20033;-84
2022/05/21 00:05:36;;;;;;;8.23;3.33;;;20.30;99.90;;;;;;5015213;28;20112;-85
2022/05/21 00:08:04;;;;;;;3.40;3.00;;;20.30;99.90;;;;;;5027929;28;20030;-85
2022/05/21 00:10:30;;;;;;;10.23;3.70;;;20.20;99.90;;;;;;5013037;28;20035;-85
2022/05/21 00:12:57;;;;;;;4.43;3.03;;;20.20;99.90;;;;;;5014458;28;20163;-85
2022/05/21 00:15:25;;;;;;;3.75;2.97;;;20.20;99.90;;;;;;5011075;28;20029;-86
2022/05/21 00:17:51;;;;;;;5.75;2.83;;;20.20;99.90;;;;;;5026949;28;20119;-85
2022/05/21 00:23:15;;;;;;;6.30;3.30;;;20.10;99.90;;;;;;5028001;28;20055;-85
2022/05/21 00:25:43;;;;;;;4.85;3.00;;;20.00;99.90;;;;;;5026407;28;20071;-85
2022/05/21 00:28:09;;;;;;;6.30;3.08;;;20.00;99.90;;;;;;5027924;28;20028;-85
2022/05/21 00:30:35;;;;;;;5.55;3.10;;;20.00;99.90;;;;;;5031732;28;20029;-84
2022/05/21 00:33:02;;;;;;;3.47;2.55;;;19.90;99.90;;;;;;5029868;28;20060;-85
2022/05/21 00:35:28;;;;;;;3.88;3.15;;;19.80;99.90;;;;;;5027810;28;20164;-85
2022/05/21 00:37:54;;;;;;;4.15;2.65;;;19.80;99.90;;;;;;5024169;28;20036;-85
2022/05/21 00:40:21;;;;;;;5.93;3.40;;;19.70;99.90;;;;;;5012051;28;20029;-84
2022/05/21 00:42:47;;;;;;;4.32;3.20;;;19.60;99.90;;;;;;5030151;28;20018;-84
2022/05/21 00:45:14;;;;;;;6.38;3.15;;;19.60;99.90;;;;;;5010313;28;20029;-85
2022/05/21 00:47:40;;;;;;;4.55;2.92;;;19.60;99.90;;;;;;5029365;28;20020;-85
2022/05/21 00:50:08;;;;;;;5.63;2.83;;;19.50;99.90;;;;;;5029510;28;20101;-85
2022/05/21 00:52:36;;;;;;;3.40;2.70;;;19.40;99.90;;;;;;5022272;28;20025;-84
2022/05/21 00:55:11;;;;;;;3.58;3.00;;;19.40;99.90;;;;;;5031281;28;20025;-84
2022/05/21 00:57:41;;;;;;;2.60;2.28;;;19.30;99.90;;;;;;5026467;28;20022;-85
2022/05/21 01:00:19;;;;;;;5.70;2.78;;;19.30;99.90;;;;;;5033656;28;20029;-84
2022/05/21 01:02:56;;;;;;;8.38;3.47;;;19.20;99.90;;;;;;5009772;28;20061;-85
2022/05/21 01:05:24;;;;;;;6.00;2.38;;;19.10;99.90;;;;;;5029300;28;20017;-85
2022/05/21 01:07:54;;;;;;;4.65;2.50;;;19.10;99.90;;;;;;5024621;28;20159;-85
2022/05/21 01:10:22;;;;;;;6.18;2.75;;;19.10;99.90;;;;;;5012448;28;20032;-85
2022/05/21 01:12:54;;;;;;;2.70;2.42;;;19.00;99.90;;;;;;5023276;28;20052;-84
2022/05/21 01:15:23;;;;;;;4.78;3.08;;;19.00;99.90;;;;;;5028918;28;20059;-84
2022/05/21 01:17:49;;;;;;;4.22;2.45;;;19.00;99.90;;;;;;5029821;28;20037;-85
2022/05/21 01:20:20;;;;;;;4.18;2.92;;;18.90;99.90;;;;;;5024387;28;20477;-84
2022/05/21 01:22:48;;;;;;;4.55;2.28;;;18.90;99.90;;;;;;5010786;28;20022;-84
2022/05/21 01:25:17;;;;;;;5.65;2.72;;;18.90;99.90;;;;;;5028284;28;20175;-84
2022/05/21 01:27:44;;;;;;;3.72;2.75;;;18.80;99.90;;;;;;5009386;28;20021;-83
2022/05/21 01:30:15;;;;;;;5.38;3.00;;;18.80;99.90;;;;;;5024775;28;20093;-83
2022/05/21 01:32:47;;;;;;;4.40;3.17;;;18.70;99.90;;;;;;5023002;28;20029;-83
2022/05/21 01:35:13;;;;;;;5.90;2.92;;;18.70;99.90;;;;;;5026881;28;20029;-83
2022/05/21 01:37:39;;;;;;;7.22;2.42;;;18.70;99.90;;;;;;5028122;28;20193;-83
2022/05/21 01:40:07;;;;;;;3.63;2.60;;;18.60;99.90;;;;;;5008631;28;20118;-84
2022/05/21 01:42:34;;;;;;;5.05;2.65;;;18.50;99.90;;;;;;5022804;28;20053;-83
2022/05/21 01:45:00;;;;;;;5.93;2.95;;;18.50;99.90;;;;;;5022952;28;20486;-84
2022/05/21 01:47:26;;;;;;;3.13;2.50;;;18.40;99.90;;;;;;5017615;28;20021;-84
2022/05/21 01:49:52;;;;;;;5.47;2.88;;;18.40;99.90;;;;;;5021620;28;20053;-84
2022/05/21 01:52:17;;;;;;;4.93;2.78;;;18.40;99.90;;;;;;5024763;28;20037;-83
2022/05/21 01:54:43;;;;;;;4.35;2.05;;;18.30;99.90;;;;;;5026992;28;20029;-84
2022/05/21 01:57:09;;;;;;;4.70;2.35;;;18.30;99.90;;;;;;5010569;28;20025;-84
2022/05/21 01:59:36;;;;;;;3.42;1.90;;;18.20;99.90;;;;;;5026716;28;20072;-84
2022/05/21 02:02:01;;;;;;;3.72;2.05;;;18.10;99.90;;;;;;5025459;28;20159;-83
2022/05/21 02:04:27;;;;;;;4.32;2.20;;;18.10;99.90;;;;;;5025661;28;20485;-84
2022/05/21 02:06:53;;;;;;;3.22;1.88;;;18.00;99.90;;;;;;5023871;28;20536;-84
2022/05/21 02:09:19;;;;;;;5.70;2.17;;;18.00;99.90;;;;;;5024360;28;20031;-84
2022/05/21 02:11:45;;;;;;;3.05;1.98;;;18.00;99.90;;;;;;5026792;28;20117;-84
2022/05/21 02:14:11;;;;;;;3.00;2.05;;;18.00;99.90;;;;;;5028341;28;20044;-84
2022/05/21 02:16:37;;;;;;;3.35;2.20;;;17.90;99.90;;;;;;5028678;28;20052;-84
2022/05/21 02:19:05;;;;;;;3.92;2.25;;;17.90;99.90;;;;;;5011153;28;20497;-84
2022/05/21 02:21:32;;;;;;;3.20;2.42;;;17.80;99.90;;;;;;5030221;28;20033;-84
2022/05/21 02:23:58;;;;;;;5.00;2.30;;;17.80;99.90;;;;;;5029537;28;20072;-83
2022/05/21 02:26:24;;;;;;;3.13;2.63;;;17.70;99.90;;;;;;5031711;28;20022;-84
2022/05/21 02:28:50;;;;;;;5.55;2.40;;;17.70;99.90;;;;;;5025920;28;20632;-84
2022/05/21 02:31:16;;;;;;;2.97;2.00;;;17.60;99.90;;;;;;5030171;28;20029;-83
2022/05/21 02:33:43;;;;;;;3.17;1.83;;;17.60;99.90;;;;;;5033092;28;20041;-84
2022/05/21 02:36:10;;;;;;;2.75;1.95;;;17.60;99.90;;;;;;5026186;28;20029;-84
2022/05/21 02:41:20;;;;;;;4.00;2.10;;;17.40;99.90;;;;;;5029713;28;20182;-84
2022/05/21 02:43:46;;;;;;;4.82;2.20;;;17.40;99.90;;;;;;5031048;28;20480;-83
2022/05/21 02:46:13;;;;;;;6.30;2.05;;;17.40;99.90;;;;;;5034783;28;20021;-83
2022/05/21 02:48:39;;;;;;;2.90;2.00;;;17.30;99.90;;;;;;5030707;28;20029;-85
2022/05/21 02:51:06;;;;;;;3.25;1.98;;;17.20;99.90;;;;;;5034852;28;20443;-83
2022/05/21 02:53:32;;;;;;;7.82;2.67;;;17.20;99.90;;;;;;5010913;28;20029;-84
2022/05/21 02:56:04;;;;;;;3.42;2.35;;;17.10;99.90;;;;;;5031948;28;20034;-85
2022/05/21 02:58:30;;;;;;;4.25;2.22;;;17.00;99.90;;;;;;5031060;28;20108;-83
2022/05/21 03:00:56;;;;;;;3.30;1.92;;;17.00;99.90;;;;;;5034461;28;20116;-83
2022/05/21 03:03:21;;;;;;;3.20;1.60;;;16.90;99.90;;;;;;5012445;28;20030;-83
2022/05/21 03:05:47;;;;;;;2.80;1.75;;;16.80;99.90;;;;;;5035886;28;20116;-84
2022/05/21 03:11:02;;;;;;;2.85;1.67;;;16.70;99.90;;;;;;5008750;28;20520;-84
2022/05/21 03:13:29;;;;;;;3.63;1.70;;;16.70;99.90;;;;;;5009757;28;20037;-84
2022/05/21 03:15:56;;;;;;;2.53;1.40;;;16.60;99.90;;;;;;5009516;28;20029;-84
2022/05/21 03:18:22;;;;;;;3.20;1.73;;;16.60;99.90;;;;;;5008815;28;20033;-84
2022/05/21 03:20:48;;;;;;;2.40;1.52;;;16.50;99.90;;;;;;5011102;28;20087;-85
2022/05/21 03:23:13;;;;;;;2.65;1.70;;;16.50;99.90;;;;;;5030344;28;20025;-83
2022/05/21 03:25:40;;;;;;;3.72;1.50;;;16.50;99.90;;;;;;5028239;28;20048;-83
2022/05/21 03:28:06;;;;;;;2.40;1.55;;;16.40;99.90;;;;;;5027360;28;20017;-83
2022/05/21 03:30:32;;;;;;;2.65;1.55;;;16.40;99.90;;;;;;5028551;28;20079;-83
2022/05/21 03:32:58;;;;;;;2.75;1.50;;;16.40;99.90;;;;;;5034634;28;20036;-83
2022/05/21 03:35:25;;;;;;;6.07;1.45;;;16.40;99.90;;;;;;5031416;28;20029;-83
2022/05/21 03:37:51;;;;;;;3.15;1.42;;;16.40;99.90;;;;;;5023994;28;20029;-83
2022/05/21 03:40:21;;;;;;;2.60;1.33;;;16.40;99.90;;;;;;5027770;28;20110;-83
2022/05/21 03:42:47;;;;;;;2.03;1.48;;;16.40;99.90;;;;;;5009839;28;20033;-83
2022/05/21 03:45:14;;;;;;;2.70;1.45;;;16.40;99.90;;;;;;5030990;28;20025;-83
2022/05/21 03:47:41;;;;;;;3.03;1.50;;;16.30;99.90;;;;;;5026040;28;20104;-83
2022/05/21 03:50:18;;;;;;;3.13;1.40;;;16.30;99.90;;;;;;5036020;28;20021;-84
2022/05/21 03:52:43;;;;;;;2.53;1.40;;;16.30;99.90;;;;;;5022183;28;20044;-83
2022/05/21 03:55:10;;;;;;;3.95;1.42;;;16.30;99.90;;;;;;5032696;28;20493;-83
2022/05/21 03:57:35;;;;;;;3.92;1.45;;;16.30;99.90;;;;;;5009426;28;20026;-83
2022/05/21 04:00:03;;;;;;;2.70;1.35;;;16.30;99.90;;;;;;5028376;28;20034;-84
2022/05/21 04:02:29;;;;;;;1.92;1.38;;;16.30;99.90;;;;;;5027221;28;20275;-83
2022/05/21 04:04:55;;;;;;;4.40;1.65;;;16.20;99.90;;;;;;5028161;28;20029;-83
2022/05/21 04:07:21;;;;;;;1.83;1.25;;;16.20;99.90;;;;;;5010573;28;20037;-83
2022/05/21 04:09:46;;;;;;;1.92;1.45;;;16.20;99.90;;;;;;5011287;28;20024;-84
2022/05/21 04:12:12;;;;;;;6.22;1.30;;;16.20;99.90;;;;;;5015963;28;20116;-83
2022/05/21 04:14:37;;;;;;;13.85;1.98;;;16.10;99.90;;;;;;5024255;28;20056;-83
2022/05/21 04:17:04;;;;;;;3.65;1.67;;;16.10;99.90;;;;;;5015132;28;20025;-82
2022/05/21 04:19:31;;;;;;;2.85;1.70;;;16.10;99.90;;;;;;5027110;28;20063;-83
2022/05/21 04:21:57;;;;;;;4.18;1.45;;;16.10;99.90;;;;;;5009381;28;20055;-83
2022/05/21 04:24:23;;;;;;;4.35;1.70;;;16.00;99.90;;;;;;5026375;28;20025;-83
2022/05/21 04:26:49;;;;;;;2.55;1.50;;;16.10;99.90;;;;;;5011038;28;20473;-83
2022/05/21 04:29:15;;;;;;;4.05;1.70;;;16.10;99.90;;;;;;5019210;28;20036;-82
2022/05/21 04:31:44;;;;;;;2.03;1.27;;;16.10;99.90;;;;;;5042348;28;20033;-82
2022/05/21 04:34:10;;;;;;;5.03;1.40;;;16.20;99.90;;;;;;5045732;28;20030;-83
2022/05/21 04:36:36;;;;;;;2.50;1.40;;;16.30;99.90;;;;;;5038981;28;20034;-85
2022/05/21 04:39:02;;;;;;;2.47;1.30;;;16.30;99.90;;;;;;5010942;28;20478;-85
2022/05/21 04:41:28;;;;;;;6.60;1.38;;;16.40;99.90;;;;;;5029077;28;20032;-85
2022/05/21 04:43:54;;;;;;;2.47;1.40;;;16.50;99.90;;;;;;5013604;28;20032;-84
2022/05/21 04:46:21;;;;;;;1.95;1.42;;;16.60;99.90;;;;;;5028326;28;20113;-85
2022/05/21 04:48:48;;;;;;;2.20;1.63;;;16.70;99.90;;;;;;5027670;28;20032;-85
2022/05/21 04:51:15;;;;;;;3.10;2.05;;;16.70;99.90;;;;;;5027161;28;20025;-85
2022/05/21 04:53:41;;;;;;;2.33;1.55;;;16.80;99.90;;;;;;5027628;28;20040;-85
2022/05/21 04:56:07;;;;;;;1.92;1.38;;;16.90;99.90;;;;;;5014328;28;20037;-85
2022/05/21 04:58:33;;;;;;;7.15;1.50;;;17.00;99.90;;;;;;5029404;28;20036;-84
2022/05/21 05:01:00;;;;;;;4.00;1.40;;;17.10;99.90;;;;;;5030079;28;20030;-83
2022/05/21 05:03:26;;;;;;;3.45;1.50;;;17.30;99.90;;;;;;5030885;28;20392;-84
2022/05/21 05:05:51;;;;;;;3.88;1.80;;;17.40;99.90;;;;;;5016006;28;20033;-84
2022/05/21 05:08:19;;;;;;;1.70;1.33;;;17.50;99.90;;;;;;5014807;28;20032;-86
2022/05/21 05:10:46;;;;;;;3.15;1.77;;;17.60;99.90;;;;;;5030167;28;20355;-86
2022/05/21 05:13:13;;;;;;;2.13;1.63;;;17.70;99.90;;;;;;5010766;28;20566;-85
2022/05/21 05:15:40;;;;;;;3.67;1.45;;;17.90;99.90;;;;;;5026859;28;20029;-85
2022/05/21 05:18:08;;;;;;;4.95;1.90;;;18.00;99.90;;;;;;5014022;28;20056;-85
2022/05/21 05:20:35;;;;;;;6.22;1.55;;;18.10;99.70;;;;;;5011533;28;20505;-83
2022/05/21 05:23:01;;;;;;;2.90;2.00;;;18.10;99.90;;;;;;5024853;28;20030;-85
2022/05/21 05:25:28;;;;;;;3.83;1.80;;;18.40;99.90;;;;;;5038510;28;20026;-88
2022/05/21 05:27:53;;;;;;;3.13;1.50;;;18.50;99.60;;;;;;5029645;28;20025;-83
2022/05/21 05:30:20;;;;;;;3.00;1.80;;;18.60;99.60;;;;;;5034489;28;26901;-86
2022/05/21 05:32:46;;;;;;;1.70;1.50;;;18.60;98.30;;;;;;5014348;28;20032;-84
2022/05/21 05:35:13;;;;;;;4.55;1.75;;;18.70;99.10;;;;;;5033059;28;20013;-83
2022/05/21 05:37:39;;;;;;;4.22;3.00;;;18.60;98.40;;;;;;5029721;28;20087;-85
2022/05/21 05:40:11;;;;;;;7.03;3.40;;;18.70;98.10;;;;;;5036117;28;20047;-86
2022/05/21 05:42:38;;;;;;;2.60;1.88;;;18.80;97.90;;;;;;5029766;28;20029;-85
2022/05/21 05:45:06;;;;;;;4.50;2.17;;;18.80;97.70;;;;;;5029356;28;20032;-84
2022/05/21 05:47:33;;;;;;;2.58;1.42;;;18.80;97.60;;;;;;5031557;28;20014;-85
2022/05/21 05:49:59;;;;;;;2.50;1.63;;;18.90;97.30;;;;;;5015640;28;20340;-85
2022/05/21 05:52:26;;;;;;;2.22;1.88;;;19.00;97.10;;;;;;5014739;28;20059;-87
2022/05/21 05:54:51;;;;;;;3.42;1.42;;;19.10;96.70;;;;;;5026918;28;20049;-88
2022/05/21 05:57:17;;;;;;;2.33;1.40;;;19.10;96.70;;;;;;5028681;28;20033;-86
2022/05/21 05:59:50;;;;;;;2.65;1.42;;;19.20;96.50;;;;;;5032792;28;20040;-86
2022/05/21 06:05:12;;;;;;;2.33;1.50;;;19.40;95.80;;;;;;5025635;28;20106;-87
2022/05/21 06:07:50;;;;;;;1.95;1.75;;;19.40;95.50;;;;;;5032069;28;20485;-87
2022/05/21 06:10:20;;;;;;;2.22;1.33;;;19.40;95.30;;;;;;5027869;28;20082;-86
2022/05/21 06:12:45;;;;;;;3.42;1.80;;;19.40;95.50;;;;;;5028324;28;20018;-88
2022/05/21 06:15:12;;;;;;;1.42;1.20;;;19.50;95.30;;;;;;5011315;28;20048;-85
2022/05/21 06:17:39;;;;;;;3.95;1.27;;;19.70;95.40;;;;;;5031359;28;20028;-82
2022/05/21 06:20:08;;;;;;;3.28;1.67;;;19.80;95.40;;;;;;5027221;28;20052;-87
2022/05/21 06:22:33;;;;;;;4.93;1.60;;;19.90;95.20;;;;;;5031725;28;20036;-87
2022/05/21 06:25:00;;;;;;;3.95;1.42;;;19.90;94.40;;;;;;5009579;28;20402;-87
2022/05/21 06:27:26;;;;;;;2.22;1.50;;;19.90;94.10;;;;;;5030706;28;20022;-87
2022/05/21 06:29:51;;;;;;;4.82;1.50;;;19.90;94.10;;;;;;5012152;28;20044;-89
2022/05/21 06:32:18;;;;;;;1.92;1.30;;;19.90;93.90;;;;;;5016268;28;20026;-88
2022/05/21 06:34:45;;;;;;;2.53;1.30;;;19.90;93.70;;;;;;5010205;28;20029;-84
2022/05/21 06:37:12;;;;;;;2.67;1.30;;;19.90;93.60;;;;;;5029152;28;20025;-88
2022/05/21 06:39:40;;;;;;;3.20;1.92;;;19.90;93.50;;;;;;5011957;28;20057;-88
2022/05/21 06:42:06;;;;;;;3.08;1.40;;;19.80;93.10;;;;;;5024525;28;20053;-90
2022/05/21 06:44:32;;;;;;;2.65;1.40;;;19.80;92.90;;;;;;5006246;28;20150;-91
2022/05/21 06:46:58;;;;;;;2.78;1.45;;;19.80;93.20;;;;;;5027535;28;20112;-89
2022/05/21 06:49:26;;;;;;;2.35;1.48;;;19.80;92.90;;;;;;5013287;28;20033;-88
2022/05/21 06:51:54;;;;;;;2.45;0.90;;;19.80;92.50;;;;;;5031428;28;20378;-88
2022/05/21 06:54:20;;;;;;;1.40;0.93;;;19.60;91.60;;;;;;5014579;28;20033;-88
2022/05/21 06:56:46;;;;;;;1.98;1.20;;;19.50;91.60;;;;;;5034115;28;20039;-88
2022/05/21 06:59:12;;;;;;;2.67;1.15;;;19.40;91.80;;;;;;5031224;28;20108;-87
2022/05/21 07:01:37;;;;;;;4.10;1.27;;;19.40;91.70;;;;;;5027368;28;20025;-88
2022/05/21 07:04:03;;;;;;;1.95;1.25;;;19.40;91.20;;;;;;5033292;28;20032;-87
2022/05/21 07:09:13;;;;;;;;;;;19.30;91.60;;;;;;5033119;28;20100;-87
2022/05/21 07:11:39;;;;;;;3.22;1.15;;;19.30;91.80;;;;;;5034965;28;19980;-87
2022/05/21 07:14:05;;;;;;;2.53;1.17;;;19.30;91.90;;;;;;5030694;28;20439;-87
2022/05/21 07:16:31;;;;;;;3.08;1.23;;;19.30;91.70;;;;;;5031595;28;20120;-88
2022/05/21 07:18:56;;;;;;;2.83;1.08;;;19.20;91.10;;;;;;5014563;28;20272;-87
2022/05/21 07:21:23;;;;;;;3.63;1.10;;;19.10;91.10;;;;;;5033920;28;20033;-88
2022/05/21 07:23:49;;;;;;;2.28;1.40;;;19.10;91.40;;;;;;5029310;28;20028;-87
2022/05/21 07:26:16;;;;;;;3.28;1.63;;;18.90;91.50;;;;;;5033910;28;20031;-88
2022/05/21 07:28:42;;;;;;;3.28;1.20;;;18.90;91.80;;;;;;5018755;28;20440;-88
2022/05/21 07:31:08;;;;;;;3.08;1.23;;;19.00;92.30;;;;;;5040734;28;20112;-88
2022/05/21 07:33:34;;;;;;;1.75;1.20;;;19.10;92.40;;;;;;5035498;28;20021;-88
2022/05/21 07:35:59;;;;;;;3.83;1.42;;;19.20;91.80;;;;;;5022923;28;20103;-88
2022/05/21 07:38:25;;;;;;;1.85;1.30;;;19.20;91.60;;;;;;5021115;28;20036;-88
2022/05/21 07:40:52;;;;;;;2.22;1.35;;;19.20;91.50;;;;;;5034713;28;20037;-88
2022/05/21 07:43:19;;;;;;;3.33;1.45;;;19.30;91.40;;;;;;5016457;28;20029;-88
2022/05/21 07:45:47;;;;;;;2.13;1.00;;;19.30;91.60;;;;;;5016947;28;20025;-87
2022/05/21 07:48:16;;;;;;;5.50;1.70;;;19.30;91.60;;;;;;5035679;28;20021;-87
2022/05/21 07:50:44;;;;;;;1.38;1.10;;;19.40;91.50;;;;;;5033184;28;20390;-87
2022/05/21 07:53:16;;;;;;;2.58;1.15;;;19.50;91.60;;;;;;5018871;28;20535;-88
2022/05/21 07:55:51;;;;;;;1.83;1.00;;;19.50;91.40;;;;;;5014651;28;20033;-88
2022/05/21 07:58:18;;;;;;;4.72;1.58;;;19.60;91.20;;;;;;5012834;28;20448;-87
2022/05/21 08:00:44;;;;;;;1.85;1.15;;;19.60;91.20;;;;;;5035009;28;20098;-88
2022/05/21 08:03:11;;;;;;;1.52;1.05;;;19.60;91.30;;;;;;5018689;28;20115;-87
2022/05/21 08:05:38;;;;;;;0.95;0.88;;;19.50;90.80;;;;;;5033739;28;20129;-87
2022/05/21 08:08:05;;;;;;;2.20;1.00;;;19.50;90.70;;;;;;5013847;28;20645;-88
2022/05/21 08:10:30;;;;;;;2.60;0.95;;;19.50;90.50;;;;;;5024950;28;20032;-87
2022/05/21 08:12:56;;;;;;;1.58;1.00;;;19.50;90.90;;;;;;5027553;28;21085;-87
2022/05/21 08:15:22;;;;;;;1.88;1.00;;;19.60;90.50;;;;;;5035138;28;20682;-87
2022/05/21 08:17:48;;;;;;;1.95;1.20;;;19.70;90.50;;;;;;5029293;28;20116;-88
2022/05/21 08:20:15;;;;;;;5.97;1.52;;;19.80;90.40;;;;;;5037514;28;20124;-87
2022/05/21 08:28:22;;;;;;;2.10;0.90;;;19.70;89.30;;;;;;4980146;28;20049;-88
2022/05/21 08:30:48;;;;;;;0.95;0.55;;;19.60;86.30;;;;;;5027785;28;20026;-88
2022/05/21 08:33:17;;;;;;;2.42;1.10;;;19.50;85.30;;;;;;5019431;28;20024;-88
2022/05/21 08:35:43;;;;;;;1.25;0.63;;;19.40;86.00;;;;;;5016804;28;20025;-87
2022/05/21 08:38:10;;;;;;;2.42;0.80;;;19.40;86.10;;;;;;5035887;28;20393;-87
2022/05/21 08:40:55;;;;;;;1.30;0.80;;;19.40;86.30;;;;;;5019709;28;20029;-87
2022/05/21 08:43:23;;;;;;;1.70;1.20;;;19.50;86.60;;;;;;5032268;28;20029;-87
2022/05/21 08:46:01;;;;;;;4.72;1.20;;;19.50;86.20;;;;;;5035791;28;20030;-87
2022/05/21 08:48:31;;;;;;;1.20;0.77;;;19.50;86.80;;;;;;5033392;28;20025;-87
2022/05/21 08:50:58;;;;;;;2.92;0.90;;;19.70;87.40;;;;;;5026996;28;20068;-87
2022/05/21 08:53:27;;;;;;;1.15;0.60;;;19.80;86.00;;;;;;5025820;28;20022;-87
2022/05/21 08:55:56;;;;;;;1.92;1.00;;;19.90;85.50;;;;;;5034483;28;20496;-86
2022/05/21 08:58:42;;;;;;;1.15;0.73;;;20.10;84.00;;;;;;5033037;28;20026;-88
2022/05/21 09:01:12;;;;;;;2.60;0.80;;;20.10;82.60;;;;;;5028707;28;20034;-88
2022/05/21 09:03:38;;;;;;;1.30;0.90;;;20.20;82.20;;;;;;5032655;28;20020;-87
2022/05/21 09:06:23;;;;;;;2.67;0.82;;;20.30;81.60;;;;;;5031013;28;20063;-87
2022/05/21 09:09:14;;;;;;;3.05;0.73;;;20.30;81.30;;;;;;5024834;28;20145;-87
2022/05/21 09:11:56;;;;;;;2.22;1.05;;;20.40;79.90;;;;;;5030409;28;20124;-88
2022/05/21 09:14:33;;;;;;;0.93;0.60;;;20.50;79.50;;;;;;5030069;28;20091;-87
2022/05/21 09:17:00;;;;;;;1.92;0.80;;;20.40;78.80;;;;;;5032300;28;20026;-87
2022/05/21 09:19:31;;;;;;;0.85;0.60;;;20.50;78.20;;;;;;5035714;28;20018;-88
2022/05/21 09:22:09;;;;;;;4.00;0.63;;;20.50;77.80;;;;;;5040390;28;20033;-87
2022/05/21 09:24:41;;;;;;;4.47;0.60;;;20.60;76.90;;;;;;5051935;28;20032;-87
2022/05/21 09:27:35;;;;;;;1.13;0.57;;;20.60;76.90;;;;;;5034762;28;20060;-87
2022/05/21 09:30:16;;;;;;;1.08;0.40;;;20.50;76.60;;;;;;5050349;28;20026;-87
2022/05/21 09:32:46;;;;;;;1.38;0.75;;;20.60;75.30;;;;;;5051348;28;20032;-87
2022/05/21 09:35:18;;;;;;;0.75;0.60;;;20.60;74.90;;;;;;5027801;28;20025;-88
2022/05/21 09:37:44;;;;;;;1.00;0.70;;;20.60;73.50;;;;;;5029045;28;20057;-87
2022/05/21 09:40:34;;;;;;;2.17;0.68;;;20.70;73.40;;;;;;5014346;28;20108;-87
2022/05/21 09:46:26;;;;;;;1.35;0.85;;;20.70;72.50;;;;;;5027989;28;20168;-88
2022/05/21 09:48:53;;;;;;;1.60;1.02;;;20.70;70.80;;;;;;5012294;28;20720;-89
2022/05/21 09:51:25;;;;;;;2.70;1.00;;;20.60;71.60;;;;;;5027330;28;20025;-87
2022/05/21 09:53:51;;;;;;;1.55;0.70;;;20.60;70.90;;;;;;5009033;28;20112;-87
2022/05/21 09:56:21;;;;;;;3.80;0.93;;;20.60;72.20;;;;;;5010105;28;20464;-87
2022/05/21 09:58:49;;;;;;;1.40;0.80;;;20.70;72.60;;;;;;5026532;28;20030;-87
2022/05/21 10:01:31;;;;;;;1.88;0.70;;;20.70;72.60;;;;;;5013620;28;20071;-88
2022/05/21 10:03:59;;;;;;;1.35;0.60;;;20.80;71.90;;;;;;5027490;28;20033;-88
2022/05/21 10:06:32;;;;;;;2.85;1.02;;;20.80;71.90;;;;;;5012033;28;20357;-87
2022/05/21 10:11:59;;;;;;;2.08;0.80;;;20.60;72.00;;;;;;5031627;28;20052;-87
2022/05/21 10:14:39;;;;;;;0.93;0.65;;;20.50;72.40;;;;;;5031035;28;20025;-87
2022/05/21 10:17:12;;;;;;;2.47;0.73;;;20.50;72.80;;;;;;5031507;28;20104;-87
2022/05/21 10:19:54;;;;;;;1.58;0.80;;;20.60;72.70;;;;;;5039282;28;20128;-87
2022/05/21 10:22:38;;;;;;;1.23;0.50;;;20.60;72.40;;;;;;5031870;28;20030;-87
2022/05/21 10:25:18;;;;;;;1.38;0.80;;;20.60;71.60;;;;;;5011906;28;20441;-86
2022/05/21 10:27:49;;;;;;;1.63;0.50;;;20.70;71.90;;;;;;5017529;28;20061;-87
2022/05/21 10:30:27;;;;;;;1.45;0.80;;;20.90;71.40;;;;;;5014629;28;20029;-87
2022/05/21 10:33:12;;;;;;;0.70;0.50;;;20.90;71.20;;;;;;5032163;28;20049;-87
2022/05/21 10:35:59;;;;;;;0.90;0.70;;;21.00;71.00;;;;;;5031572;28;20053;-87
2022/05/21 10:38:31;;;;;;;1.00;0.68;;;21.10;70.00;;;;;;5039051;28;20021;-87
2022/05/21 10:41:08;;;;;;;0.80;0.50;;;21.30;69.90;;;;;;5032574;28;20084;-87
2022/05/21 10:43:53;;;;;;;2.65;0.80;;;21.30;68.70;;;;;;5029932;28;20275;-87
2022/05/21 10:46:42;;;;;;;2.60;0.70;;;21.30;68.40;;;;;;5029234;28;20017;-87
2022/05/21 10:49:23;;;;;;;1.65;0.80;;;21.30;69.10;;;;;;5022015;28;20053;-87
2022/05/21 10:52:02;;;;;;;1.40;0.98;;;21.30;69.30;;;;;;5031929;28;20044;-87
2022/05/21 10:54:35;;;;;;;1.98;0.82;;;21.40;69.80;;;;;;5031732;28;20119;-87
2022/05/21 10:57:24;;;;;;;3.10;2.10;;;21.50;70.10;;;;;;5030594;28;20047;-87
2022/05/21 11:00:12;;;;;;;1.30;0.60;;;21.50;70.10;;;;;;5033795;28;20034;-87
2022/05/21 11:02:51;;;;;;;1.33;0.70;;;21.50;70.30;;;;;;5042004;28;20092;-87
2022/05/21 11:05:40;;;;;;;1.20;0.77;;;21.60;70.30;;;;;;5039219;28;20067;-87
2022/05/21 11:08:14;;;;;;;2.78;0.73;;;21.60;70.20;;;;;;5030309;28;20112;-87
2022/05/21 11:11:21;;;;;;;1.48;0.63;;;21.60;67.40;;;;;;5030654;28;20041;-87
2022/05/21 11:14:16;;;;;;;3.10;0.63;;;21.60;67.30;;;;;;4990714;28;20482;-87
2022/05/21 11:17:08;;;;;;;1.42;0.50;;;21.60;67.80;;;;;;5037070;28;20030;-86
2022/05/21 11:19:54;;;;;;;1.75;0.93;;;21.70;68.90;;;;;;5009187;28;20064;-87
2022/05/21 11:22:26;;;;;;;1.33;0.70;;;21.70;69.50;;;;;;5034003;28;20017;-87
2022/05/21 11:25:19;;;;;;;3.28;0.90;;;21.80;69.40;;;;;;5027771;28;20093;-87
2022/05/21 11:28:34;;;;;;;0.40;0.40;;;21.80;68.80;;;;;;5035745;28;20022;-87
2022/05/21 11:31:07;;;;;;;1.17;0.50;;;21.90;67.70;;;;;;5031468;28;20030;-87
2022/05/21 11:39:13;;;;;;;1.27;0.80;;;22.20;68.00;;;;;;5033261;28;20036;-87
2022/05/21 11:42:08;;;;;;;1.88;0.82;;;22.20;67.80;;;;;;5013768;28;20032;-87
2022/05/21 11:44:57;;;;;;;0.60;0.60;;;22.30;67.00;;;;;;5029549;28;20061;-87
2022/05/21 11:47:22;;;;;;;1.15;0.60;;;22.40;66.20;;;;;;5041066;28;20029;-87
2022/05/21 11:50:00;;;;;;;1.55;0.80;;;22.40;65.60;;;;;;5030372;28;20025;-87
2022/05/21 11:52:31;;;;;;;3.15;0.98;;;22.40;66.00;;;;;;5033898;28;20024;-87
2022/05/21 11:54:57;;;;;;;1.13;0.60;;;22.50;65.60;;;;;;5032744;28;20090;-88
2022/05/21 11:57:59;;;;;;;1.30;0.60;;;22.50;65.20;;;;;;5031004;28;20033;-87
2022/05/21 12:00:25;;;;;;;0.50;0.40;;;22.60;64.40;;;;;;4971479;28;20035;-87
2022/05/21 12:02:54;;;;;;;1.88;0.60;;;22.60;62.80;;;;;;5017609;28;20044;-87
2022/05/21 12:05:34;;;;;;;0.70;0.50;;;22.60;62.70;;;;;;5030765;28;20017;-87
2022/05/21 12:08:30;;;;;;;0.70;0.60;;;22.70;62.80;;;;;;5028797;28;20060;-87
2022/05/21 12:11:12;;;;;;;1.95;0.50;;;22.80;62.70;;;;;;5027800;28;20112;-87
2022/05/21 12:13:41;;;;;;;1.10;0.50;;;22.80;62.40;;;;;;5024794;28;20024;-87
2022/05/21 12:16:21;;;;;;;1.40;0.50;;;22.90;61.10;;;;;;5030184;28;20040;-87
2022/05/21 12:18:54;;;;;;;2.08;0.80;;;22.90;60.00;;;;;;5027123;28;20041;-87
2022/05/21 12:21:44;;;;;;;0.68;0.50;;;22.80;59.90;;;;;;5034365;28;20025;-86
2022/05/21 12:24:28;;;;;;;2.45;0.60;;;22.80;59.90;;;;;;5024675;28;20569;-87
2022/05/21 12:27:22;;;;;;;2.05;0.60;;;22.90;59.50;;;;;;5030017;28;20104;-86
2022/05/21 12:29:51;;;;;;;2.25;0.60;;;23.00;58.80;;;;;;5028579;28;20050;-87
2022/05/21 12:32:24;;;;;;;1.92;0.60;;;23.10;57.90;;;;;;5032670;28;20033;-87
2022/05/21 12:34:52;;;;;;;1.08;0.50;;;23.20;57.10;;;;;;5031732;28;20044;-86
2022/05/21 12:37:30;;;;;;;1.00;0.60;;;23.40;56.80;;;;;;5016628;28;20022;-87
2022/05/21 12:40:05;;;;;;;2.20;0.43;;;23.60;56.20;;;;;;5020491;28;20033;-86
2022/05/21 12:42:39;;;;;;;1.13;0.70;;;23.70;55.40;;;;;;5038571;28;20480;-88
2022/05/21 12:45:06;;;;;;;2.35;0.50;;;23.70;54.70;;;;;;5031571;28;20029;-88
2022/05/21 12:47:33;;;;;;;2.35;0.50;;;23.80;54.70;;;;;;5037282;28;20029;-87
2022/05/21 12:50:03;;;;;;;2.78;0.70;;;23.80;54.70;;;;;;5030640;28;20492;-87
2022/05/21 12:52:36;;;;;;;1.13;0.50;;;23.90;54.10;;;;;;5033341;28;20239;-88
2022/05/21 12:55:25;;;;;;;1.30;0.60;;;23.90;53.00;;;;;;5035135;28;20079;-87
2022/05/21 12:57:56;;;;;;;0.65;0.50;;;24.00;53.40;;;;;;5015087;28;20026;-87
2022/05/21 13:00:24;;;;;;;0.85;0.50;;;24.10;53.10;;;;;;5034444;28;20049;-86
2022/05/21 13:02:53;;;;;;;1.35;0.80;;;24.10;52.10;;;;;;5034652;28;20022;-87
2022/05/21 13:05:23;;;;;;;2.30;0.60;;;24.10;51.90;;;;;;5031922;28;20096;-88
2022/05/21 13:07:50;;;;;;;0.68;0.55;;;24.10;51.70;;;;;;5027166;28;20021;-88
2022/05/21 13:10:34;;;;;;;0.73;0.50;;;24.10;51.90;;;;;;5025454;28;20303;-87
2022/05/21 13:13:04;;;;;;;;;;;24.20;51.60;;;;;;5013172;28;20018;-88
2022/05/21 13:15:33;;;;;;;1.52;0.68;;;24.30;51.80;;;;;;5023129;28;20320;-87
2022/05/21 13:18:05;;;;;;;1.73;0.90;;;24.30;50.50;;;;;;5010565;28;20032;-87
2022/05/21 13:21:04;;;;;;;0.80;0.60;;;24.30;51.10;;;;;;5033457;28;20072;-87
2022/05/21 13:23:48;;;;;;;0.63;0.50;;;24.40;50.30;;;;;;5031035;28;20076;-88
2022/05/21 13:26:31;;;;;;;0.63;0.55;;;24.30;49.90;;;;;;5024712;28;20021;-87
2022/05/21 13:29:20;;;;;;;0.95;0.73;;;24.30;50.00;;;;;;5027985;28;20112;-87
2022/05/21 13:31:48;;;;;;;0.63;0.40;;;24.20;49.90;;;;;;5028478;28;20033;-87
2022/05/21 13:34:23;;;;;;;1.15;0.65;;;24.20;49.40;;;;;;5017472;28;20025;-87
2022/05/21 13:37:00;;;;;;;0.73;0.60;;;24.20;50.00;;;;;;5025040;28;20028;-87